sensor_id;sensor_type;location;lat;lon;timestamp;temperature;humidity
17284;DHT22;8760;52.248;20.952;2022-09-30T00:00:30;5.80;99.90
17284;DHT22;8760;52.248;20.952;2022-09-30T00:02:57;5.80;99.90
17284;DHT22;8760;52.248;20.952;2022-09-30T00:05:24;5.80;99.90
17284;DHT22;8760;52.248;20.952;2022-09-30T00:07:53;5.80;99.90
17284;DHT22;8760;52.248;20.952;2022-09-30T00:10:19;5.80;99.90
17284;DHT22;8760;52.248;20.952;2022-09-30T00:12:46;5.80;99.90
17284;DHT22;8760;52.248;20.952;2022-09-30T00:15:14;5.80;99.90
17284;DHT22;8760;52.248;20.952;2022-09-30T00:17:41;5.80;99.90
17284;DHT22;8760;52.248;20.952;2022-09-30T00:20:09;5.80;99.90
17284;DHT22;8760;52.248;20.952;2022-09-30T00:22:35;5.70;99.90
17284;DHT22;8760;52.248;20.952;2022-09-30T00:25:03;5.70;99.90
17284;DHT22;8760;52.248;20.952;2022-09-30T00:27:30;5.70;99.90
17284;DHT22;8760;52.248;20.952;2022-09-30T00:29:56;5.80;99.90
17284;DHT22;8760;52.248;20.952;2022-09-30T00:32:24;5.70;99.90
17284;DHT22;8760;52.248;20.952;2022-09-30T00:34:51;5.70;99.90
17284;DHT22;8760;52.248;20.952;2022-09-30T00:37:18;5.70;99.90
17284;DHT22;8760;52.248;20.952;2022-09-30T00:39:45;5.70;99.90
17284;DHT22;8760;52.248;20.952;2022-09-30T00:42:13;5.70;99.90
17284;DHT22;8760;52.248;20.952;2022-09-30T00:44:49;5.70;99.90
17284;DHT22;8760;52.248;20.952;2022-09-30T00:47:43;5.70;99.90
17284;DHT22;8760;52.248;20.952;2022-09-30T00:50:24;5.70;99.90
17284;DHT22;8760;52.248;20.952;2022-09-30T00:52:56;5.60;99.90
17284;DHT22;8760;52.248;20.952;2022-09-30T00:55:34;5.60;99.90
17284;DHT22;8760;52.248;20.952;2022-09-30T00:58:05;5.60;99.90
17284;DHT22;8760;52.248;20.952;2022-09-30T01:00:33;5.60;99.90
17284;DHT22;8760;52.248;20.952;2022-09-30T01:03:03;5.60;99.90
17284;DHT22;8760;52.248;20.952;2022-09-30T01:05:32;5.60;99.90
17284;DHT22;8760;52.248;20.952;2022-09-30T01:08:01;5.60;99.90
17284;DHT22;8760;52.248;20.952;2022-09-30T01:10:29;5.60;99.90
17284;DHT22;8760;52.248;20.952;2022-09-30T01:12:56;5.50;99.90
17284;DHT22;8760;52.248;20.952;2022-09-30T01:15:33;5.60;99.90
17284;DHT22;8760;52.248;20.952;2022-09-30T01:18:09;5.50;99.90
17284;DHT22;8760;52.248;20.952;2022-09-30T01:20:53;5.50;99.90
17284;DHT22;8760;52.248;20.952;2022-09-30T01:23:42;5.60;99.90
17284;DHT22;8760;52.248;20.952;2022-09-30T01:29:46;5.50;99.90
17284;DHT22;8760;52.248;20.952;2022-09-30T01:32:24;5.50;99.90
17284;DHT22;8760;52.248;20.952;2022-09-30T01:35:01;5.50;99.90
17284;DHT22;8760;52.248;20.952;2022-09-30T01:37:38;5.40;99.90
17284;DHT22;8760;52.248;20.952;2022-09-30T01:40:14;5.50;99.90
17284;DHT22;8760;52.248;20.952;2022-09-30T01:42:52;5.40;99.90
17284;DHT22;8760;52.248;20.952;2022-09-30T01:45:28;5.40;99.90
17284;DHT22;8760;52.248;20.952;2022-09-30T01:48:01;5.30;99.90
17284;DHT22;8760;52.248;20.952;2022-09-30T01:50:35;5.30;99.90
17284;DHT22;8760;52.248;20.952;2022-09-30T01:53:12;5.40;99.90
17284;DHT22;8760;52.248;20.952;2022-09-30T01:55:45;5.30;99.90
17284;DHT22;8760;52.248;20.952;2022-09-30T01:58:18;5.30;99.90
17284;DHT22;8760;52.248;20.952;2022-09-30T02:00:53;5.30;99.90
17284;DHT22;8760;52.248;20.952;2022-09-30T02:03:28;5.30;99.90
17284;DHT22;8760;52.248;20.952;2022-09-30T02:06:01;5.30;99.90
17284;DHT22;8760;52.248;20.952;2022-09-30T02:08:32;5.30;99.90
17284;DHT22;8760;52.248;20.952;2022-09-30T02:11:06;5.30;99.90
17284;DHT22;8760;52.248;20.952;2022-09-30T02:13:38;5.20;99.90
17284;DHT22;8760;52.248;20.952;2022-09-30T02:16:09;5.20;99.90
17284;DHT22;8760;52.248;20.952;2022-09-30T02:18:41;5.20;99.90
17284;DHT22;8760;52.248;20.952;2022-09-30T02:21:11;5.20;99.90
17284;DHT22;8760;52.248;20.952;2022-09-30T02:23:42;5.20;99.90
17284;DHT22;8760;52.248;20.952;2022-09-30T02:26:15;5.20;99.90
17284;DHT22;8760;52.248;20.952;2022-09-30T02:28:47;5.20;99.90
17284;DHT22;8760;52.248;20.952;2022-09-30T02:31:17;5.20;99.90
17284;DHT22;8760;52.248;20.952;2022-09-30T02:33:53;5.10;99.90
17284;DHT22;8760;52.248;20.952;2022-09-30T02:36:26;5.10;99.90
17284;DHT22;8760;52.248;20.952;2022-09-30T02:38:58;5.10;99.90
17284;DHT22;8760;52.248;20.952;2022-09-30T02:41:28;5.10;99.90
17284;DHT22;8760;52.248;20.952;2022-09-30T02:43:57;5.10;99.90
17284;DHT22;8760;52.248;20.952;2022-09-30T02:46:35;5.10;99.90
17284;DHT22;8760;52.248;20.952;2022-09-30T02:49:09;5.00;99.90
17284;DHT22;8760;52.248;20.952;2022-09-30T02:51:44;5.00;99.90
17284;DHT22;8760;52.248;20.952;2022-09-30T02:54:18;5.00;99.90
17284;DHT22;8760;52.248;20.952;2022-09-30T02:56:53;5.00;99.90
17284;DHT22;8760;52.248;20.952;2022-09-30T02:59:23;5.00;99.90
17284;DHT22;8760;52.248;20.952;2022-09-30T03:01:51;5.00;99.90
17284;DHT22;8760;52.248;20.952;2022-09-30T03:04:22;5.00;99.90
17284;DHT22;8760;52.248;20.952;2022-09-30T03:06:52;5.00;99.90
17284;DHT22;8760;52.248;20.952;2022-09-30T03:09:23;5.00;99.90
17284;DHT22;8760;52.248;20.952;2022-09-30T03:11:51;4.90;99.90
17284;DHT22;8760;52.248;20.952;2022-09-30T03:17:34;4.90;99.90
17284;DHT22;8760;52.248;20.952;2022-09-30T03:20:15;4.90;99.90
17284;DHT22;8760;52.248;20.952;2022-09-30T03:23:03;5.00;99.90
17284;DHT22;8760;52.248;20.952;2022-09-30T03:25:41;4.90;99.90
17284;DHT22;8760;52.248;20.952;2022-09-30T03:28:16;4.90;99.90
17284;DHT22;8760;52.248;20.952;2022-09-30T03:30:52;4.90;99.90
17284;DHT22;8760;52.248;20.952;2022-09-30T03:33:22;4.90;99.90
17284;DHT22;8760;52.248;20.952;2022-09-30T03:35:58;4.90;99.90
17284;DHT22;8760;52.248;20.952;2022-09-30T03:38:35;4.90;99.90
17284;DHT22;8760;52.248;20.952;2022-09-30T03:41:10;4.90;99.90
17284;DHT22;8760;52.248;20.952;2022-09-30T03:43:44;4.90;99.90
17284;DHT22;8760;52.248;20.952;2022-09-30T03:46:17;4.90;99.90
17284;DHT22;8760;52.248;20.952;2022-09-30T03:48:48;4.90;99.90
17284;DHT22;8760;52.248;20.952;2022-09-30T03:51:17;4.90;99.90
17284;DHT22;8760;52.248;20.952;2022-09-30T03:53:44;4.90;99.90
17284;DHT22;8760;52.248;20.952;2022-09-30T03:56:12;4.90;99.90
17284;DHT22;8760;52.248;20.952;2022-09-30T03:58:41;4.90;99.90
17284;DHT22;8760;52.248;20.952;2022-09-30T04:01:15;4.90;99.90
17284;DHT22;8760;52.248;20.952;2022-09-30T04:03:43;4.90;99.90
17284;DHT22;8760;52.248;20.952;2022-09-30T04:06:12;4.90;99.90
17284;DHT22;8760;52.248;20.952;2022-09-30T04:08:40;4.90;99.90
17284;DHT22;8760;52.248;20.952;2022-09-30T04:11:06;4.80;99.90
17284;DHT22;8760;52.248;20.952;2022-09-30T04:13:33;4.90;99.90
17284;DHT22;8760;52.248;20.952;2022-09-30T04:16:00;4.90;99.90
17284;DHT22;8760;52.248;20.952;2022-09-30T04:18:27;4.90;99.90
17284;DHT22;8760;52.248;20.952;2022-09-30T04:20:55;4.90;99.90
17284;DHT22;8760;52.248;20.952;2022-09-30T04:23:22;4.90;99.90
17284;DHT22;8760;52.248;20.952;2022-09-30T04:25:54;4.90;99.90
17284;DHT22;8760;52.248;20.952;2022-09-30T04:28:21;4.90;99.90
17284;DHT22;8760;52.248;20.952;2022-09-30T04:30:48;5.00;99.90
17284;DHT22;8760;52.248;20.952;2022-09-30T04:33:15;5.00;99.90
17284;DHT22;8760;52.248;20.952;2022-09-30T04:35:41;5.00;99.90
17284;DHT22;8760;52.248;20.952;2022-09-30T04:38:08;5.00;99.90
17284;DHT22;8760;52.248;20.952;2022-09-30T04:40:35;5.00;99.90
17284;DHT22;8760;52.248;20.952;2022-09-30T04:43:05;5.00;99.90
17284;DHT22;8760;52.248;20.952;2022-09-30T04:45:32;5.00;99.90
17284;DHT22;8760;52.248;20.952;2022-09-30T04:47:59;5.00;99.90
17284;DHT22;8760;52.248;20.952;2022-09-30T04:50:26;5.00;99.90
17284;DHT22;8760;52.248;20.952;2022-09-30T04:52:52;5.00;99.90
17284;DHT22;8760;52.248;20.952;2022-09-30T04:55:20;5.00;99.90
17284;DHT22;8760;52.248;20.952;2022-09-30T04:57:48;5.00;99.90
17284;DHT22;8760;52.248;20.952;2022-09-30T05:00:17;5.00;99.90
17284;DHT22;8760;52.248;20.952;2022-09-30T05:02:45;5.00;99.90
17284;DHT22;8760;52.248;20.952;2022-09-30T05:05:12;5.10;99.90
17284;DHT22;8760;52.248;20.952;2022-09-30T05:07:39;5.20;99.90
17284;DHT22;8760;52.248;20.952;2022-09-30T05:10:07;5.20;99.90
17284;DHT22;8760;52.248;20.952;2022-09-30T05:12:35;5.30;99.90
17284;DHT22;8760;52.248;20.952;2022-09-30T05:15:02;5.30;99.90
17284;DHT22;8760;52.248;20.952;2022-09-30T05:17:31;5.30;99.90
17284;DHT22;8760;52.248;20.952;2022-09-30T05:19:57;5.40;99.90
17284;DHT22;8760;52.248;20.952;2022-09-30T05:22:25;5.40;99.90
17284;DHT22;8760;52.248;20.952;2022-09-30T05:24:53;5.40;99.90
17284;DHT22;8760;52.248;20.952;2022-09-30T05:27:20;5.40;99.90
17284;DHT22;8760;52.248;20.952;2022-09-30T05:29:47;5.40;99.90
17284;DHT22;8760;52.248;20.952;2022-09-30T05:32:14;5.50;99.90
17284;DHT22;8760;52.248;20.952;2022-09-30T05:34:43;5.50;99.90
17284;DHT22;8760;52.248;20.952;2022-09-30T05:37:10;5.50;99.90
17284;DHT22;8760;52.248;20.952;2022-09-30T05:39:37;5.60;99.90
17284;DHT22;8760;52.248;20.952;2022-09-30T05:42:03;5.60;99.90
17284;DHT22;8760;52.248;20.952;2022-09-30T05:44:30;5.60;99.90
17284;DHT22;8760;52.248;20.952;2022-09-30T05:46:59;5.60;99.90
17284;DHT22;8760;52.248;20.952;2022-09-30T05:49:25;5.70;99.90
17284;DHT22;8760;52.248;20.952;2022-09-30T05:51:54;5.70;99.90
17284;DHT22;8760;52.248;20.952;2022-09-30T05:54:20;5.70;99.90
17284;DHT22;8760;52.248;20.952;2022-09-30T05:56:47;5.70;99.90
17284;DHT22;8760;52.248;20.952;2022-09-30T05:59:14;5.80;99.90
17284;DHT22;8760;52.248;20.952;2022-09-30T06:01:41;5.80;99.90
17284;DHT22;8760;52.248;20.952;2022-09-30T06:04:07;5.90;99.90
17284;DHT22;8760;52.248;20.952;2022-09-30T06:06:34;6.00;99.90
17284;DHT22;8760;52.248;20.952;2022-09-30T06:09:02;6.10;99.90
17284;DHT22;8760;52.248;20.952;2022-09-30T06:11:29;6.40;99.90
17284;DHT22;8760;52.248;20.952;2022-09-30T06:13:56;6.80;99.90
17284;DHT22;8760;52.248;20.952;2022-09-30T06:16:23;7.00;99.90
17284;DHT22;8760;52.248;20.952;2022-09-30T06:18:50;7.20;99.90
17284;DHT22;8760;52.248;20.952;2022-09-30T06:21:17;7.50;99.90
17284;DHT22;8760;52.248;20.952;2022-09-30T06:23:44;8.00;99.90
17284;DHT22;8760;52.248;20.952;2022-09-30T06:26:13;8.40;99.90
17284;DHT22;8760;52.248;20.952;2022-09-30T06:28:40;8.70;99.90
17284;DHT22;8760;52.248;20.952;2022-09-30T06:31:07;9.10;99.90
17284;DHT22;8760;52.248;20.952;2022-09-30T06:33:34;9.40;99.90
17284;DHT22;8760;52.248;20.952;2022-09-30T06:36:01;9.70;99.90
17284;DHT22;8760;52.248;20.952;2022-09-30T06:38:29;9.70;99.90
17284;DHT22;8760;52.248;20.952;2022-09-30T06:40:58;9.80;99.90
17284;DHT22;8760;52.248;20.952;2022-09-30T06:43:27;9.80;99.90
17284;DHT22;8760;52.248;20.952;2022-09-30T06:45:53;9.80;99.90
17284;DHT22;8760;52.248;20.952;2022-09-30T06:48:20;9.70;99.90
17284;DHT22;8760;52.248;20.952;2022-09-30T06:50:48;9.60;99.90
17284;DHT22;8760;52.248;20.952;2022-09-30T06:53:17;9.50;99.90
17284;DHT22;8760;52.248;20.952;2022-09-30T06:55:44;9.40;99.90
17284;DHT22;8760;52.248;20.952;2022-09-30T06:58:13;9.40;99.90
17284;DHT22;8760;52.248;20.952;2022-09-30T07:00:42;9.30;99.90
17284;DHT22;8760;52.248;20.952;2022-09-30T07:03:24;9.40;99.90
17284;DHT22;8760;52.248;20.952;2022-09-30T07:05:56;9.50;99.90
17284;DHT22;8760;52.248;20.952;2022-09-30T07:08:24;9.60;99.90
17284;DHT22;8760;52.248;20.952;2022-09-30T07:10:53;9.70;99.90
17284;DHT22;8760;52.248;20.952;2022-09-30T07:13:20;9.80;99.90
17284;DHT22;8760;52.248;20.952;2022-09-30T07:15:48;9.90;99.90
17284;DHT22;8760;52.248;20.952;2022-09-30T07:18:16;10.00;99.90
17284;DHT22;8760;52.248;20.952;2022-09-30T07:20:47;10.20;99.90
17284;DHT22;8760;52.248;20.952;2022-09-30T07:23:14;10.70;99.90
17284;DHT22;8760;52.248;20.952;2022-09-30T07:25:48;11.70;99.90
17284;DHT22;8760;52.248;20.952;2022-09-30T07:28:16;12.10;99.90
17284;DHT22;8760;52.248;20.952;2022-09-30T07:30:42;12.50;99.90
17284;DHT22;8760;52.248;20.952;2022-09-30T07:33:11;12.90;99.90
17284;DHT22;8760;52.248;20.952;2022-09-30T07:35:48;13.40;99.90
17284;DHT22;8760;52.248;20.952;2022-09-30T07:38:15;13.80;99.90
17284;DHT22;8760;52.248;20.952;2022-09-30T07:40:50;14.00;1.00
17284;DHT22;8760;52.248;20.952;2022-09-30T07:43:17;14.10;1.00
17284;DHT22;8760;52.248;20.952;2022-09-30T07:45:45;14.40;99.90
17284;DHT22;8760;52.248;20.952;2022-09-30T07:48:14;14.40;1.00
17284;DHT22;8760;52.248;20.952;2022-09-30T07:50:54;14.50;1.00
17284;DHT22;8760;52.248;20.952;2022-09-30T07:53:21;14.60;1.00
17284;DHT22;8760;52.248;20.952;2022-09-30T07:55:48;14.50;1.00
17284;DHT22;8760;52.248;20.952;2022-09-30T07:58:15;14.60;1.00
17284;DHT22;8760;52.248;20.952;2022-09-30T08:00:41;14.60;1.00
17284;DHT22;8760;52.248;20.952;2022-09-30T08:03:08;14.30;99.90
17284;DHT22;8760;52.248;20.952;2022-09-30T08:05:39;14.30;1.00
17284;DHT22;8760;52.248;20.952;2022-09-30T08:08:06;14.20;99.90
17284;DHT22;8760;52.248;20.952;2022-09-30T08:10:33;14.30;99.90
17284;DHT22;8760;52.248;20.952;2022-09-30T08:13:00;14.30;99.90
17284;DHT22;8760;52.248;20.952;2022-09-30T08:15:27;14.40;99.90
17284;DHT22;8760;52.248;20.952;2022-09-30T08:17:53;14.70;81.10
17284;DHT22;8760;52.248;20.952;2022-09-30T08:20:20;14.60;99.90
17284;DHT22;8760;52.248;20.952;2022-09-30T08:22:51;14.50;99.90
17284;DHT22;8760;52.248;20.952;2022-09-30T08:25:18;14.30;99.90
17284;DHT22;8760;52.248;20.952;2022-09-30T08:27:44;14.10;99.90
17284;DHT22;8760;52.248;20.952;2022-09-30T08:30:11;13.80;1.00
17284;DHT22;8760;52.248;20.952;2022-09-30T08:32:38;13.60;1.00
17284;DHT22;8760;52.248;20.952;2022-09-30T08:35:05;13.40;1.00
17284;DHT22;8760;52.248;20.952;2022-09-30T08:37:32;13.50;1.00
17284;DHT22;8760;52.248;20.952;2022-09-30T08:40:00;13.20;1.00
17284;DHT22;8760;52.248;20.952;2022-09-30T08:42:41;13.10;99.90
17284;DHT22;8760;52.248;20.952;2022-09-30T08:45:21;12.90;1.00
17284;DHT22;8760;52.248;20.952;2022-09-30T08:47:55;12.80;1.00
17284;DHT22;8760;52.248;20.952;2022-09-30T08:50:32;12.80;1.00
17284;DHT22;8760;52.248;20.952;2022-09-30T08:53:03;12.70;1.00
17284;DHT22;8760;52.248;20.952;2022-09-30T08:55:37;12.60;1.00
17284;DHT22;8760;52.248;20.952;2022-09-30T08:58:05;12.60;99.90
17284;DHT22;8760;52.248;20.952;2022-09-30T09:00:39;12.70;99.90
17284;DHT22;8760;52.248;20.952;2022-09-30T09:03:11;12.60;1.00
17284;DHT22;8760;52.248;20.952;2022-09-30T09:05:55;12.60;99.90
17284;DHT22;8760;52.248;20.952;2022-09-30T09:08:30;12.50;99.90
17284;DHT22;8760;52.248;20.952;2022-09-30T09:11:02;12.50;99.90
17284;DHT22;8760;52.248;20.952;2022-09-30T09:13:45;12.40;99.90
17284;DHT22;8760;52.248;20.952;2022-09-30T09:16:21;12.30;99.90
17284;DHT22;8760;52.248;20.952;2022-09-30T09:18:56;12.30;1.00
17284;DHT22;8760;52.248;20.952;2022-09-30T09:21:38;12.40;1.00
17284;DHT22;8760;52.248;20.952;2022-09-30T09:24:13;12.40;1.00
17284;DHT22;8760;52.248;20.952;2022-09-30T09:26:42;12.40;1.00
17284;DHT22;8760;52.248;20.952;2022-09-30T09:29:21;12.40;1.00
17284;DHT22;8760;52.248;20.952;2022-09-30T09:31:52;12.40;99.90
17284;DHT22;8760;52.248;20.952;2022-09-30T09:34:22;12.30;1.00
17284;DHT22;8760;52.248;20.952;2022-09-30T09:37:01;12.40;99.90
17284;DHT22;8760;52.248;20.952;2022-09-30T09:39:55;12.40;1.00
17284;DHT22;8760;52.248;20.952;2022-09-30T09:42:38;12.40;99.90
17284;DHT22;8760;52.248;20.952;2022-09-30T09:45:14;12.50;99.90
17284;DHT22;8760;52.248;20.952;2022-09-30T09:47:49;12.70;99.90
17284;DHT22;8760;52.248;20.952;2022-09-30T09:50:20;12.80;99.90
17284;DHT22;8760;52.248;20.952;2022-09-30T09:53:12;12.90;99.90
17284;DHT22;8760;52.248;20.952;2022-09-30T09:55:41;13.00;1.00
17284;DHT22;8760;52.248;20.952;2022-09-30T09:58:11;13.10;1.00
17284;DHT22;8760;52.248;20.952;2022-09-30T10:00:39;13.20;1.00
17284;DHT22;8760;52.248;20.952;2022-09-30T10:03:35;13.30;1.00
17284;DHT22;8760;52.248;20.952;2022-09-30T10:06:06;13.50;1.00
17284;DHT22;8760;52.248;20.952;2022-09-30T10:08:35;13.60;99.70
17284;DHT22;8760;52.248;20.952;2022-09-30T10:11:05;13.80;1.00
17284;DHT22;8760;52.248;20.952;2022-09-30T10:13:41;14.10;1.00
17284;DHT22;8760;52.248;20.952;2022-09-30T10:16:25;14.70;99.90
17284;DHT22;8760;52.248;20.952;2022-09-30T10:18:53;15.00;92.80
17284;DHT22;8760;52.248;20.952;2022-09-30T10:21:22;15.00;1.00
17284;DHT22;8760;52.248;20.952;2022-09-30T10:23:49;15.20;1.00
17284;DHT22;8760;52.248;20.952;2022-09-30T10:26:17;15.00;1.00
17284;DHT22;8760;52.248;20.952;2022-09-30T10:28:50;14.80;1.00
17284;DHT22;8760;52.248;20.952;2022-09-30T10:31:22;14.60;1.00
17284;DHT22;8760;52.248;20.952;2022-09-30T10:33:54;14.60;99.90
17284;DHT22;8760;52.248;20.952;2022-09-30T10:36:29;14.40;1.00
17284;DHT22;8760;52.248;20.952;2022-09-30T10:38:59;14.30;99.90
17284;DHT22;8760;52.248;20.952;2022-09-30T10:41:28;14.40;99.90
17284;DHT22;8760;52.248;20.952;2022-09-30T10:43:58;14.30;99.90
17284;DHT22;8760;52.248;20.952;2022-09-30T10:46:28;14.30;99.90
17284;DHT22;8760;52.248;20.952;2022-09-30T10:48:57;14.20;1.00
17284;DHT22;8760;52.248;20.952;2022-09-30T10:51:30;14.40;1.00
17284;DHT22;8760;52.248;20.952;2022-09-30T10:53:59;14.40;1.00
17284;DHT22;8760;52.248;20.952;2022-09-30T10:56:35;14.40;1.00
17284;DHT22;8760;52.248;20.952;2022-09-30T10:59:09;14.40;1.00
17284;DHT22;8760;52.248;20.952;2022-09-30T11:01:45;14.40;1.00
17284;DHT22;8760;52.248;20.952;2022-09-30T11:04:20;14.40;1.00
17284;DHT22;8760;52.248;20.952;2022-09-30T11:07:02;14.40;1.00
17284;DHT22;8760;52.248;20.952;2022-09-30T11:09:38;14.40;1.00
17284;DHT22;8760;52.248;20.952;2022-09-30T11:12:13;14.40;1.00
17284;DHT22;8760;52.248;20.952;2022-09-30T11:14:48;14.20;1.00
17284;DHT22;8760;52.248;20.952;2022-09-30T11:17:27;14.00;1.00
17284;DHT22;8760;52.248;20.952;2022-09-30T11:20:05;14.10;1.00
17284;DHT22;8760;52.248;20.952;2022-09-30T11:22:42;14.10;1.00
17284;DHT22;8760;52.248;20.952;2022-09-30T11:25:14;14.10;1.00
17284;DHT22;8760;52.248;20.952;2022-09-30T11:27:53;14.10;99.90
17284;DHT22;8760;52.248;20.952;2022-09-30T11:30:26;14.10;1.00
17284;DHT22;8760;52.248;20.952;2022-09-30T11:33:13;14.20;56.40
17284;DHT22;8760;52.248;20.952;2022-09-30T11:35:52;14.10;1.00
17284;DHT22;8760;52.248;20.952;2022-09-30T11:41:24;14.20;1.00
17284;DHT22;8760;52.248;20.952;2022-09-30T11:43:58;14.10;1.00
17284;DHT22;8760;52.248;20.952;2022-09-30T11:46:56;14.00;99.90
17284;DHT22;8760;52.248;20.952;2022-09-30T11:49:47;14.00;1.00
17284;DHT22;8760;52.248;20.952;2022-09-30T11:52:22;13.90;1.00
17284;DHT22;8760;52.248;20.952;2022-09-30T11:55:09;13.90;9.00
17284;DHT22;8760;52.248;20.952;2022-09-30T11:57:46;13.80;99.90
17284;DHT22;8760;52.248;20.952;2022-09-30T12:00:17;13.90;1.00
17284;DHT22;8760;52.248;20.952;2022-09-30T12:02:47;14.00;1.00
17284;DHT22;8760;52.248;20.952;2022-09-30T12:05:18;13.90;1.00
17284;DHT22;8760;52.248;20.952;2022-09-30T12:07:48;14.00;2.50
17284;DHT22;8760;52.248;20.952;2022-09-30T12:10:18;14.00;1.00
17284;DHT22;8760;52.248;20.952;2022-09-30T12:12:55;14.00;1.00
17284;DHT22;8760;52.248;20.952;2022-09-30T12:15:22;14.00;99.90
17284;DHT22;8760;52.248;20.952;2022-09-30T12:17:54;13.90;99.90
17284;DHT22;8760;52.248;20.952;2022-09-30T12:20:26;13.90;1.00
17284;DHT22;8760;52.248;20.952;2022-09-30T12:22:58;13.90;72.40
17284;DHT22;8760;52.248;20.952;2022-09-30T12:25:31;14.00;99.90
17284;DHT22;8760;52.248;20.952;2022-09-30T12:28:05;14.00;99.90
17284;DHT22;8760;52.248;20.952;2022-09-30T12:30:49;14.00;1.00
17284;DHT22;8760;52.248;20.952;2022-09-30T12:33:51;14.10;1.00
17284;DHT22;8760;52.248;20.952;2022-09-30T12:36:42;14.10;1.00
17284;DHT22;8760;52.248;20.952;2022-09-30T12:39:29;14.20;99.90
17284;DHT22;8760;52.248;20.952;2022-09-30T12:42:12;14.20;99.90
17284;DHT22;8760;52.248;20.952;2022-09-30T12:45:03;14.20;99.90
17284;DHT22;8760;52.248;20.952;2022-09-30T12:47:36;14.30;1.00
17284;DHT22;8760;52.248;20.952;2022-09-30T12:50:05;14.30;99.90
17284;DHT22;8760;52.248;20.952;2022-09-30T12:52:35;14.30;1.00
17284;DHT22;8760;52.248;20.952;2022-09-30T12:55:06;14.40;1.00
17284;DHT22;8760;52.248;20.952;2022-09-30T12:57:39;14.50;1.00
17284;DHT22;8760;52.248;20.952;2022-09-30T13:00:14;14.40;1.00
17284;DHT22;8760;52.248;20.952;2022-09-30T13:02:43;14.50;1.00
17284;DHT22;8760;52.248;20.952;2022-09-30T13:08:41;14.50;1.00
17284;DHT22;8760;52.248;20.952;2022-09-30T13:11:34;14.50;1.00
17284;DHT22;8760;52.248;20.952;2022-09-30T13:14:16;14.50;1.00
17284;DHT22;8760;52.248;20.952;2022-09-30T13:17:23;14.50;1.00
17284;DHT22;8760;52.248;20.952;2022-09-30T13:19:52;14.50;1.00
17284;DHT22;8760;52.248;20.952;2022-09-30T13:22:54;14.50;1.00
17284;DHT22;8760;52.248;20.952;2022-09-30T13:25:21;14.50;1.00
17284;DHT22;8760;52.248;20.952;2022-09-30T13:27:50;14.40;1.00
17284;DHT22;8760;52.248;20.952;2022-09-30T13:30:38;14.30;1.00
17284;DHT22;8760;52.248;20.952;2022-09-30T13:33:29;14.30;99.90
17284;DHT22;8760;52.248;20.952;2022-09-30T13:36:04;14.30;1.00
17284;DHT22;8760;52.248;20.952;2022-09-30T13:38:35;14.30;1.00
17284;DHT22;8760;52.248;20.952;2022-09-30T13:41:07;14.30;1.00
17284;DHT22;8760;52.248;20.952;2022-09-30T13:43:39;14.20;1.00
17284;DHT22;8760;52.248;20.952;2022-09-30T13:46:16;14.20;99.90
17284;DHT22;8760;52.248;20.952;2022-09-30T13:48:51;14.10;99.90
17284;DHT22;8760;52.248;20.952;2022-09-30T13:51:21;14.00;1.00
17284;DHT22;8760;52.248;20.952;2022-09-30T13:53:51;14.00;1.00
17284;DHT22;8760;52.248;20.952;2022-09-30T13:56:22;14.00;1.00
17284;DHT22;8760;52.248;20.952;2022-09-30T14:02:04;14.00;99.90
17284;DHT22;8760;52.248;20.952;2022-09-30T14:07:35;13.90;1.00
17284;DHT22;8760;52.248;20.952;2022-09-30T14:10:22;13.90;1.00
17284;DHT22;8760;52.248;20.952;2022-09-30T14:13:04;14.00;1.00
17284;DHT22;8760;52.248;20.952;2022-09-30T14:15:57;14.00;99.90
17284;DHT22;8760;52.248;20.952;2022-09-30T14:18:46;13.90;1.00
17284;DHT22;8760;52.248;20.952;2022-09-30T14:21:25;13.90;1.00
17284;DHT22;8760;52.248;20.952;2022-09-30T14:23:56;13.90;1.00
17284;DHT22;8760;52.248;20.952;2022-09-30T14:26:39;13.80;1.00
17284;DHT22;8760;52.248;20.952;2022-09-30T14:29:16;13.80;1.00
17284;DHT22;8760;52.248;20.952;2022-09-30T14:31:47;13.70;1.00
17284;DHT22;8760;52.248;20.952;2022-09-30T14:34:16;13.70;1.00
17284;DHT22;8760;52.248;20.952;2022-09-30T14:36:45;13.70;1.00
17284;DHT22;8760;52.248;20.952;2022-09-30T14:39:17;13.60;1.00
17284;DHT22;8760;52.248;20.952;2022-09-30T14:41:49;13.50;1.00
17284;DHT22;8760;52.248;20.952;2022-09-30T14:44:17;13.50;99.90
17284;DHT22;8760;52.248;20.952;2022-09-30T14:46:46;13.50;1.00
17284;DHT22;8760;52.248;20.952;2022-09-30T14:49:16;13.50;1.00
17284;DHT22;8760;52.248;20.952;2022-09-30T14:51:46;13.50;1.00
17284;DHT22;8760;52.248;20.952;2022-09-30T14:54:16;13.50;1.00
17284;DHT22;8760;52.248;20.952;2022-09-30T14:56:44;13.50;1.00
17284;DHT22;8760;52.248;20.952;2022-09-30T14:59:15;13.50;1.00
17284;DHT22;8760;52.248;20.952;2022-09-30T15:01:42;13.50;1.00
17284;DHT22;8760;52.248;20.952;2022-09-30T15:04:15;13.40;1.00
17284;DHT22;8760;52.248;20.952;2022-09-30T15:06:44;13.40;99.90
17284;DHT22;8760;52.248;20.952;2022-09-30T15:09:19;13.40;1.00
17284;DHT22;8760;52.248;20.952;2022-09-30T15:11:47;13.30;99.90
17284;DHT22;8760;52.248;20.952;2022-09-30T15:14:17;13.30;1.00
17284;DHT22;8760;52.248;20.952;2022-09-30T15:16:46;13.30;1.00
17284;DHT22;8760;52.248;20.952;2022-09-30T15:19:18;13.30;1.00
17284;DHT22;8760;52.248;20.952;2022-09-30T15:21:46;13.20;1.00
17284;DHT22;8760;52.248;20.952;2022-09-30T15:24:13;13.20;1.00
17284;DHT22;8760;52.248;20.952;2022-09-30T15:26:42;13.20;99.90
17284;DHT22;8760;52.248;20.952;2022-09-30T15:29:12;13.10;1.00
17284;DHT22;8760;52.248;20.952;2022-09-30T15:31:43;13.10;99.90
17284;DHT22;8760;52.248;20.952;2022-09-30T15:34:15;13.10;99.90
17284;DHT22;8760;52.248;20.952;2022-09-30T15:36:44;13.00;99.90
17284;DHT22;8760;52.248;20.952;2022-09-30T15:39:20;13.00;99.90
17284;DHT22;8760;52.248;20.952;2022-09-30T15:41:48;13.00;78.90
17284;DHT22;8760;52.248;20.952;2022-09-30T15:44:17;13.00;99.90
17284;DHT22;8760;52.248;20.952;2022-09-30T15:47:00;12.90;99.90
17284;DHT22;8760;52.248;20.952;2022-09-30T15:49:33;12.80;99.90
17284;DHT22;8760;52.248;20.952;2022-09-30T15:52:25;12.80;99.90
17284;DHT22;8760;52.248;20.952;2022-09-30T15:54:54;12.70;1.00
17284;DHT22;8760;52.248;20.952;2022-09-30T15:57:42;12.70;1.00
17284;DHT22;8760;52.248;20.952;2022-09-30T16:00:34;12.70;1.00
17284;DHT22;8760;52.248;20.952;2022-09-30T16:03:13;12.60;1.00
17284;DHT22;8760;52.248;20.952;2022-09-30T16:05:43;12.60;1.00
17284;DHT22;8760;52.248;20.952;2022-09-30T16:08:17;12.60;99.90
17284;DHT22;8760;52.248;20.952;2022-09-30T16:10:48;12.50;99.90
17284;DHT22;8760;52.248;20.952;2022-09-30T16:13:15;12.50;99.90
17284;DHT22;8760;52.248;20.952;2022-09-30T16:15:42;12.40;1.00
17284;DHT22;8760;52.248;20.952;2022-09-30T16:18:16;12.40;1.00
17284;DHT22;8760;52.248;20.952;2022-09-30T16:20:57;12.40;1.00
17284;DHT22;8760;52.248;20.952;2022-09-30T16:23:29;12.30;1.00
17284;DHT22;8760;52.248;20.952;2022-09-30T16:26:28;12.30;99.90
17284;DHT22;8760;52.248;20.952;2022-09-30T16:28:54;12.20;99.90
17284;DHT22;8760;52.248;20.952;2022-09-30T16:31:26;12.10;1.00
17284;DHT22;8760;52.248;20.952;2022-09-30T16:33:53;12.10;99.90